sensor_id;sensor_type;location;lat;lon;timestamp;temperature;humidity
46340;DHT22;47273;49.274;8.708;2022-12-07T10:25:47;5.70;99.90
46340;DHT22;47273;49.274;8.708;2022-12-07T10:28:17;5.70;99.90
46340;DHT22;47273;49.274;8.708;2022-12-07T10:33:37;5.70;99.90
46340;DHT22;47273;49.274;8.708;2022-12-07T10:36:22;5.70;99.90
46340;DHT22;47273;49.274;8.708;2022-12-07T10:38:51;5.70;99.90
46340;DHT22;47273;49.274;8.708;2022-12-07T10:41:17;5.70;99.90
46340;DHT22;47273;49.274;8.708;2022-12-07T10:43:52;5.70;99.90
46340;DHT22;47273;49.274;8.708;2022-12-07T11:00:24;5.80;99.90
46340;DHT22;47273;49.274;8.708;2022-12-07T11:21:58;5.90;99.90
46340;DHT22;47273;49.274;8.708;2022-12-07T11:24:40;6.00;99.90
46340;DHT22;47273;49.274;8.708;2022-12-07T11:37:18;6.10;99.90
46340;DHT22;47273;49.274;8.708;2022-12-07T11:39:52;6.10;99.90
46340;DHT22;47273;49.274;8.708;2022-12-07T11:42:24;6.10;99.90
46340;DHT22;47273;49.274;8.708;2022-12-07T11:52:51;6.20;99.90
46340;DHT22;47273;49.274;8.708;2022-12-07T12:06:42;6.20;99.90
46340;DHT22;47273;49.274;8.708;2022-12-07T12:09:15;6.30;99.90
46340;DHT22;47273;49.274;8.708;2022-12-07T12:20:19;6.30;99.90
46340;DHT22;47273;49.274;8.708;2022-12-07T12:23:06;6.30;99.90
46340;DHT22;47273;49.274;8.708;2022-12-07T12:25:40;6.30;99.90
46340;DHT22;47273;49.274;8.708;2022-12-07T12:28:06;6.40;99.90
46340;DHT22;47273;49.274;8.708;2022-12-07T12:30:42;6.30;99.90
46340;DHT22;47273;49.274;8.708;2022-12-07T12:33:15;6.30;99.90
46340;DHT22;47273;49.274;8.708;2022-12-07T12:35:43;6.30;99.90
46340;DHT22;47273;49.274;8.708;2022-12-07T12:38:29;6.30;99.90
46340;DHT22;47273;49.274;8.708;2022-12-07T12:40:55;6.30;99.90
46340;DHT22;47273;49.274;8.708;2022-12-07T12:43:50;6.20;99.90
46340;DHT22;47273;49.274;8.708;2022-12-07T12:51:42;6.20;99.90
46340;DHT22;47273;49.274;8.708;2022-12-07T12:54:33;6.30;99.90
46340;DHT22;47273;49.274;8.708;2022-12-07T12:59:39;6.20;99.90
46340;DHT22;47273;49.274;8.708;2022-12-07T13:07:49;6.30;99.90
46340;DHT22;47273;49.274;8.708;2022-12-07T13:26:12;6.40;99.90
46340;DHT22;47273;49.274;8.708;2022-12-07T13:28:43;6.40;99.90
46340;DHT22;47273;49.274;8.708;2022-12-07T13:31:38;6.40;99.90
46340;DHT22;47273;49.274;8.708;2022-12-07T13:36:51;6.40;99.90
46340;DHT22;47273;49.274;8.708;2022-12-07T13:39:18;6.40;99.90
46340;DHT22;47273;49.274;8.708;2022-12-07T13:41:53;6.40;99.90
46340;DHT22;47273;49.274;8.708;2022-12-07T13:44:19;6.40;99.90
46340;DHT22;47273;49.274;8.708;2022-12-07T13:49:28;6.40;99.90
46340;DHT22;47273;49.274;8.708;2022-12-07T13:51:55;6.40;99.90
46340;DHT22;47273;49.274;8.708;2022-12-07T13:54:32;6.40;99.90
46340;DHT22;47273;49.274;8.708;2022-12-07T13:56:58;6.40;99.90
46340;DHT22;47273;49.274;8.708;2022-12-07T13:59:25;6.40;99.90
46340;DHT22;47273;49.274;8.708;2022-12-07T14:01:52;6.40;99.90
46340;DHT22;47273;49.274;8.708;2022-12-07T14:04:30;6.40;99.90
46340;DHT22;47273;49.274;8.708;2022-12-07T14:06:56;6.40;99.90
46340;DHT22;47273;49.274;8.708;2022-12-07T14:09:25;6.30;99.90
46340;DHT22;47273;49.274;8.708;2022-12-07T14:11:53;6.30;99.90
46340;DHT22;47273;49.274;8.708;2022-12-07T14:14:30;6.30;99.90
46340;DHT22;47273;49.274;8.708;2022-12-07T14:17:15;6.30;99.90
46340;DHT22;47273;49.274;8.708;2022-12-07T14:19:47;6.30;99.90
46340;DHT22;47273;49.274;8.708;2022-12-07T14:22:31;6.30;99.90
46340;DHT22;47273;49.274;8.708;2022-12-07T14:25:01;6.30;99.90
46340;DHT22;47273;49.274;8.708;2022-12-07T14:27:32;6.30;99.90
46340;DHT22;47273;49.274;8.708;2022-12-07T14:30:01;6.20;99.90
46340;DHT22;47273;49.274;8.708;2022-12-07T14:32:28;6.30;99.90
46340;DHT22;47273;49.274;8.708;2022-12-07T14:34:59;6.20;99.90
46340;DHT22;47273;49.274;8.708;2022-12-07T14:37:26;6.30;99.90
46340;DHT22;47273;49.274;8.708;2022-12-07T14:39:52;6.10;99.90
46340;DHT22;47273;49.274;8.708;2022-12-07T14:42:18;6.00;99.90
46340;DHT22;47273;49.274;8.708;2022-12-07T14:44:45;6.00;99.90
46340;DHT22;47273;49.274;8.708;2022-12-07T14:47:11;6.10;99.90
46340;DHT22;47273;49.274;8.708;2022-12-07T14:49:37;6.00;99.90
46340;DHT22;47273;49.274;8.708;2022-12-07T14:52:03;6.00;99.90
46340;DHT22;47273;49.274;8.708;2022-12-07T14:54:31;6.10;99.90
46340;DHT22;47273;49.274;8.708;2022-12-07T14:56:57;6.10;99.90
46340;DHT22;47273;49.274;8.708;2022-12-07T14:59:23;6.10;99.90
46340;DHT22;47273;49.274;8.708;2022-12-07T15:01:49;6.10;99.90
46340;DHT22;47273;49.274;8.708;2022-12-07T15:04:14;6.20;99.90
46340;DHT22;47273;49.274;8.708;2022-12-07T15:06:40;6.20;99.90
46340;DHT22;47273;49.274;8.708;2022-12-07T15:09:10;6.10;99.90
46340;DHT22;47273;49.274;8.708;2022-12-07T15:11:36;6.10;99.90
46340;DHT22;47273;49.274;8.708;2022-12-07T15:14:02;6.10;99.90
46340;DHT22;47273;49.274;8.708;2022-12-07T15:16:34;6.10;99.90
46340;DHT22;47273;49.274;8.708;2022-12-07T15:19:00;6.10;99.90
46340;DHT22;47273;49.274;8.708;2022-12-07T15:21:26;6.10;99.90
46340;DHT22;47273;49.274;8.708;2022-12-07T15:23:51;6.10;99.90
46340;DHT22;47273;49.274;8.708;2022-12-07T15:26:17;6.10;99.90
46340;DHT22;47273;49.274;8.708;2022-12-07T15:28:43;6.10;99.90
46340;DHT22;47273;49.274;8.708;2022-12-07T15:31:13;6.10;99.90
46340;DHT22;47273;49.274;8.708;2022-12-07T15:33:38;6.10;99.90
46340;DHT22;47273;49.274;8.708;2022-12-07T15:36:04;6.20;99.90
46340;DHT22;47273;49.274;8.708;2022-12-07T15:38:30;6.10;99.90
46340;DHT22;47273;49.274;8.708;2022-12-07T15:40:56;6.10;99.90
46340;DHT22;47273;49.274;8.708;2022-12-07T15:43:22;6.10;99.90
46340;DHT22;47273;49.274;8.708;2022-12-07T15:46:06;6.10;99.90
46340;DHT22;47273;49.274;8.708;2022-12-07T15:48:32;6.10;99.90
46340;DHT22;47273;49.274;8.708;2022-12-07T15:51:03;6.10;99.90
46340;DHT22;47273;49.274;8.708;2022-12-07T15:53:29;6.10;99.90
46340;DHT22;47273;49.274;8.708;2022-12-07T15:55:54;6.00;99.90
46340;DHT22;47273;49.274;8.708;2022-12-07T15:58:20;6.00;99.90
46340;DHT22;47273;49.274;8.708;2022-12-07T16:00:45;6.00;99.90
46340;DHT22;47273;49.274;8.708;2022-12-07T16:03:13;6.00;99.90
46340;DHT22;47273;49.274;8.708;2022-12-07T16:05:39;5.90;99.90
46340;DHT22;47273;49.274;8.708;2022-12-07T16:08:05;5.90;99.90
46340;DHT22;47273;49.274;8.708;2022-12-07T16:10:31;5.90;99.90
46340;DHT22;47273;49.274;8.708;2022-12-07T16:12:56;5.90;99.90
46340;DHT22;47273;49.274;8.708;2022-12-07T16:15:22;6.00;99.90
46340;DHT22;47273;49.274;8.708;2022-12-07T16:17:50;6.00;99.90
46340;DHT22;47273;49.274;8.708;2022-12-07T16:20:15;6.00;99.90
46340;DHT22;47273;49.274;8.708;2022-12-07T16:22:41;6.00;99.90
46340;DHT22;47273;49.274;8.708;2022-12-07T16:25:07;5.90;99.90
46340;DHT22;47273;49.274;8.708;2022-12-07T16:27:34;5.90;99.90
46340;DHT22;47273;49.274;8.708;2022-12-07T16:29:59;5.90;99.90
46340;DHT22;47273;49.274;8.708;2022-12-07T16:32:25;5.90;99.90
46340;DHT22;47273;49.274;8.708;2022-12-07T16:34:50;5.90;99.90
46340;DHT22;47273;49.274;8.708;2022-12-07T16:37:16;5.90;99.90
46340;DHT22;47273;49.274;8.708;2022-12-07T16:39:42;5.90;99.90
46340;DHT22;47273;49.274;8.708;2022-12-07T16:42:07;5.90;99.90
46340;DHT22;47273;49.274;8.708;2022-12-07T16:44:33;5.90;99.90
46340;DHT22;47273;49.274;8.708;2022-12-07T16:46:59;5.90;99.90
46340;DHT22;47273;49.274;8.708;2022-12-07T16:49:26;5.90;99.90
46340;DHT22;47273;49.274;8.708;2022-12-07T16:51:51;5.90;99.90
46340;DHT22;47273;49.274;8.708;2022-12-07T16:54:17;5.90;99.90
46340;DHT22;47273;49.274;8.708;2022-12-07T16:56:43;5.90;99.90
46340;DHT22;47273;49.274;8.708;2022-12-07T16:59:09;5.90;99.90
46340;DHT22;47273;49.274;8.708;2022-12-07T17:01:35;5.90;99.90
46340;DHT22;47273;49.274;8.708;2022-12-07T17:04:02;5.90;99.90
46340;DHT22;47273;49.274;8.708;2022-12-07T17:06:29;5.90;99.90
46340;DHT22;47273;49.274;8.708;2022-12-07T17:08:56;5.90;99.90
46340;DHT22;47273;49.274;8.708;2022-12-07T17:11:25;5.90;99.90
46340;DHT22;47273;49.274;8.708;2022-12-07T17:13:52;5.90;99.90
46340;DHT22;47273;49.274;8.708;2022-12-07T17:16:36;5.80;99.90
46340;DHT22;47273;49.274;8.708;2022-12-07T17:19:11;5.80;99.90
46340;DHT22;47273;49.274;8.708;2022-12-07T17:21:37;5.90;99.90
46340;DHT22;47273;49.274;8.708;2022-12-07T17:24:05;5.80;99.90
46340;DHT22;47273;49.274;8.708;2022-12-07T17:26:31;5.80;99.90
46340;DHT22;47273;49.274;8.708;2022-12-07T17:28:57;5.80;99.90
46340;DHT22;47273;49.274;8.708;2022-12-07T17:31:24;5.80;99.90
46340;DHT22;47273;49.274;8.708;2022-12-07T17:33:50;5.80;99.90
46340;DHT22;47273;49.274;8.708;2022-12-07T17:36:21;5.70;99.90
46340;DHT22;47273;49.274;8.708;2022-12-07T17:38:47;5.70;99.90
46340;DHT22;47273;49.274;8.708;2022-12-07T17:44:06;5.70;99.90
46340;DHT22;47273;49.274;8.708;2022-12-07T17:46:32;5.70;99.90
46340;DHT22;47273;49.274;8.708;2022-12-07T17:48:59;5.70;99.90
46340;DHT22;47273;49.274;8.708;2022-12-07T17:51:25;5.70;99.90
46340;DHT22;47273;49.274;8.708;2022-12-07T17:54:10;5.70;99.90
46340;DHT22;47273;49.274;8.708;2022-12-07T17:56:36;5.70;99.90
46340;DHT22;47273;49.274;8.708;2022-12-07T17:59:02;5.70;99.90
46340;DHT22;47273;49.274;8.708;2022-12-07T18:01:28;5.70;99.90
46340;DHT22;47273;49.274;8.708;2022-12-07T18:03:54;5.70;99.90
46340;DHT22;47273;49.274;8.708;2022-12-07T18:06:20;5.70;99.90
46340;DHT22;47273;49.274;8.708;2022-12-07T18:08:45;5.60;99.90
46340;DHT22;47273;49.274;8.708;2022-12-07T18:11:11;5.60;99.90
46340;DHT22;47273;49.274;8.708;2022-12-07T18:13:37;5.60;99.90
46340;DHT22;47273;49.274;8.708;2022-12-07T18:16:05;5.60;99.90
46340;DHT22;47273;49.274;8.708;2022-12-07T18:18:31;5.60;99.90
46340;DHT22;47273;49.274;8.708;2022-12-07T18:20:57;5.60;99.90
46340;DHT22;47273;49.274;8.708;2022-12-07T18:23:22;5.60;99.90
46340;DHT22;47273;49.274;8.708;2022-12-07T18:25:52;5.60;99.90
46340;DHT22;47273;49.274;8.708;2022-12-07T18:28:17;5.60;99.90
46340;DHT22;47273;49.274;8.708;2022-12-07T18:30:45;5.50;99.90
46340;DHT22;47273;49.274;8.708;2022-12-07T18:33:17;5.60;99.90
46340;DHT22;47273;49.274;8.708;2022-12-07T18:35:43;5.50;99.90
46340;DHT22;47273;49.274;8.708;2022-12-07T18:38:09;5.50;99.90
46340;DHT22;47273;49.274;8.708;2022-12-07T18:40:39;5.50;99.90
46340;DHT22;47273;49.274;8.708;2022-12-07T18:43:05;5.50;99.90
46340;DHT22;47273;49.274;8.708;2022-12-07T18:45:36;5.50;99.90
46340;DHT22;47273;49.274;8.708;2022-12-07T18:48:02;5.50;99.90
46340;DHT22;47273;49.274;8.708;2022-12-07T18:50:28;5.50;99.90
46340;DHT22;47273;49.274;8.708;2022-12-07T18:52:57;5.50;99.90
46340;DHT22;47273;49.274;8.708;2022-12-07T18:55:24;5.40;99.90
46340;DHT22;47273;49.274;8.708;2022-12-07T18:57:51;5.50;99.90
46340;DHT22;47273;49.274;8.708;2022-12-07T19:00:17;5.50;99.90
46340;DHT22;47273;49.274;8.708;2022-12-07T19:02:43;5.50;99.90
46340;DHT22;47273;49.274;8.708;2022-12-07T19:05:09;5.50;99.90
46340;DHT22;47273;49.274;8.708;2022-12-07T19:07:34;5.40;99.90
46340;DHT22;47273;49.274;8.708;2022-12-07T19:10:00;5.40;99.90
46340;DHT22;47273;49.274;8.708;2022-12-07T19:12:26;5.40;99.90
46340;DHT22;47273;49.274;8.708;2022-12-07T19:14:51;5.50;99.90
46340;DHT22;47273;49.274;8.708;2022-12-07T19:17:19;5.40;99.90
46340;DHT22;47273;49.274;8.708;2022-12-07T19:19:46;5.40;99.90
46340;DHT22;47273;49.274;8.708;2022-12-07T19:22:14;5.40;99.90
46340;DHT22;47273;49.274;8.708;2022-12-07T19:24:40;5.40;99.90
46340;DHT22;47273;49.274;8.708;2022-12-07T19:27:07;5.40;99.90
46340;DHT22;47273;49.274;8.708;2022-12-07T19:29:33;5.40;99.90
46340;DHT22;47273;49.274;8.708;2022-12-07T19:32:00;5.40;99.90
46340;DHT22;47273;49.274;8.708;2022-12-07T19:34:27;5.40;99.90
46340;DHT22;47273;49.274;8.708;2022-12-07T19:36:53;5.40;99.90
46340;DHT22;47273;49.274;8.708;2022-12-07T19:39:19;5.40;99.90
46340;DHT22;47273;49.274;8.708;2022-12-07T19:41:44;5.40;99.90
46340;DHT22;47273;49.274;8.708;2022-12-07T19:44:17;5.40;99.90
46340;DHT22;47273;49.274;8.708;2022-12-07T19:46:45;5.40;99.90
46340;DHT22;47273;49.274;8.708;2022-12-07T19:49:12;5.40;99.90
46340;DHT22;47273;49.274;8.708;2022-12-07T19:51:44;5.40;99.90
46340;DHT22;47273;49.274;8.708;2022-12-07T19:54:11;5.40;99.90
46340;DHT22;47273;49.274;8.708;2022-12-07T19:56:39;5.40;99.90
46340;DHT22;47273;49.274;8.708;2022-12-07T19:59:05;5.40;99.90
46340;DHT22;47273;49.274;8.708;2022-12-07T20:01:32;5.40;99.90
46340;DHT22;47273;49.274;8.708;2022-12-07T20:03:59;5.30;99.90
46340;DHT22;47273;49.274;8.708;2022-12-07T20:06:25;5.30;99.90
46340;DHT22;47273;49.274;8.708;2022-12-07T20:08:51;5.30;99.90
46340;DHT22;47273;49.274;8.708;2022-12-07T20:11:19;5.30;99.90
46340;DHT22;47273;49.274;8.708;2022-12-07T20:14:10;5.30;99.90
46340;DHT22;47273;49.274;8.708;2022-12-07T20:16:37;5.30;99.90
46340;DHT22;47273;49.274;8.708;2022-12-07T20:19:06;5.30;99.90
46340;DHT22;47273;49.274;8.708;2022-12-07T20:21:33;5.30;99.90
46340;DHT22;47273;49.274;8.708;2022-12-07T20:24:00;5.30;99.90
46340;DHT22;47273;49.274;8.708;2022-12-07T20:26:26;5.30;99.90
46340;DHT22;47273;49.274;8.708;2022-12-07T20:28:52;5.30;99.90
46340;DHT22;47273;49.274;8.708;2022-12-07T20:31:18;5.30;99.90
46340;DHT22;47273;49.274;8.708;2022-12-07T20:33:44;5.30;99.90
46340;DHT22;47273;49.274;8.708;2022-12-07T20:36:16;5.30;99.90
46340;DHT22;47273;49.274;8.708;2022-12-07T20:38:43;5.30;99.90
46340;DHT22;47273;49.274;8.708;2022-12-07T20:41:10;5.30;99.90
46340;DHT22;47273;49.274;8.708;2022-12-07T20:43:57;5.20;99.90
46340;DHT22;47273;49.274;8.708;2022-12-07T20:46:23;5.20;99.90
46340;DHT22;47273;49.274;8.708;2022-12-07T20:48:49;5.30;99.90
46340;DHT22;47273;49.274;8.708;2022-12-07T20:51:15;5.20;99.90
46340;DHT22;47273;49.274;8.708;2022-12-07T20:53:40;5.20;99.90
46340;DHT22;47273;49.274;8.708;2022-12-07T20:56:06;5.20;99.90
46340;DHT22;47273;49.274;8.708;2022-12-07T20:58:32;5.20;99.90
46340;DHT22;47273;49.274;8.708;2022-12-07T21:01:03;5.20;99.90
46340;DHT22;47273;49.274;8.708;2022-12-07T21:03:29;5.20;99.90
46340;DHT22;47273;49.274;8.708;2022-12-07T21:05:55;5.20;99.90
46340;DHT22;47273;49.274;8.708;2022-12-07T21:08:20;5.30;99.90
46340;DHT22;47273;49.274;8.708;2022-12-07T21:10:46;5.30;99.90
46340;DHT22;47273;49.274;8.708;2022-12-07T21:13:12;5.30;99.90
46340;DHT22;47273;49.274;8.708;2022-12-07T21:15:38;5.30;99.90
46340;DHT22;47273;49.274;8.708;2022-12-07T21:18:04;5.30;99.90
46340;DHT22;47273;49.274;8.708;2022-12-07T21:20:40;5.30;99.90
46340;DHT22;47273;49.274;8.708;2022-12-07T21:23:05;5.30;99.90
46340;DHT22;47273;49.274;8.708;2022-12-07T21:25:32;5.30;99.90
46340;DHT22;47273;49.274;8.708;2022-12-07T21:27:57;5.20;99.90
